sensor_id;sensor_type;location;lat;lon;timestamp;temperature;humidity
10344;DHT22;5217;43.960;10.954;2022-11-12T00:01:31;18.10;94.80
10344;DHT22;5217;43.960;10.954;2022-11-12T00:03:59;18.10;94.70
10344;DHT22;5217;43.960;10.954;2022-11-12T00:06:29;18.10;94.40
10344;DHT22;5217;43.960;10.954;2022-11-12T00:08:58;18.10;94.00
10344;DHT22;5217;43.960;10.954;2022-11-12T00:11:26;18.10;93.60
10344;DHT22;5217;43.960;10.954;2022-11-12T00:13:54;18.10;93.50
10344;DHT22;5217;43.960;10.954;2022-11-12T00:16:23;18.10;93.60
10344;DHT22;5217;43.960;10.954;2022-11-12T00:18:51;18.10;93.40
10344;DHT22;5217;43.960;10.954;2022-11-12T00:21:20;18.10;93.60
10344;DHT22;5217;43.960;10.954;2022-11-12T00:23:50;18.10;93.50
10344;DHT22;5217;43.960;10.954;2022-11-12T00:26:19;18.10;93.50
10344;DHT22;5217;43.960;10.954;2022-11-12T00:28:47;18.10;93.50
10344;DHT22;5217;43.960;10.954;2022-11-12T00:31:15;18.10;93.60
10344;DHT22;5217;43.960;10.954;2022-11-12T00:33:44;18.10;93.40
10344;DHT22;5217;43.960;10.954;2022-11-12T00:36:12;18.00;93.70
10344;DHT22;5217;43.960;10.954;2022-11-12T00:38:40;18.00;93.70
10344;DHT22;5217;43.960;10.954;2022-11-12T00:41:10;18.10;93.70
10344;DHT22;5217;43.960;10.954;2022-11-12T00:43:38;18.10;93.70
10344;DHT22;5217;43.960;10.954;2022-11-12T00:46:07;18.10;93.60
10344;DHT22;5217;43.960;10.954;2022-11-12T00:48:35;18.10;93.80
10344;DHT22;5217;43.960;10.954;2022-11-12T00:51:04;18.10;93.60
10344;DHT22;5217;43.960;10.954;2022-11-12T00:53:33;18.00;93.70
10344;DHT22;5217;43.960;10.954;2022-11-12T00:56:02;18.10;93.90
10344;DHT22;5217;43.960;10.954;2022-11-12T00:58:34;18.00;93.70
10344;DHT22;5217;43.960;10.954;2022-11-12T01:01:07;18.00;93.70
10344;DHT22;5217;43.960;10.954;2022-11-12T01:03:37;18.00;93.80
10344;DHT22;5217;43.960;10.954;2022-11-12T01:06:10;18.00;93.90
10344;DHT22;5217;43.960;10.954;2022-11-12T01:08:39;18.00;93.90
10344;DHT22;5217;43.960;10.954;2022-11-12T01:11:10;18.00;93.80
10344;DHT22;5217;43.960;10.954;2022-11-12T01:13:41;18.00;93.60
10344;DHT22;5217;43.960;10.954;2022-11-12T01:16:12;18.00;93.70
10344;DHT22;5217;43.960;10.954;2022-11-12T01:18:41;18.00;93.80
10344;DHT22;5217;43.960;10.954;2022-11-12T01:21:10;18.00;93.90
10344;DHT22;5217;43.960;10.954;2022-11-12T01:23:39;18.00;93.80
10344;DHT22;5217;43.960;10.954;2022-11-12T01:26:10;18.00;93.80
10344;DHT22;5217;43.960;10.954;2022-11-12T01:28:40;18.00;93.80
10344;DHT22;5217;43.960;10.954;2022-11-12T01:31:14;17.90;93.90
10344;DHT22;5217;43.960;10.954;2022-11-12T01:33:44;17.90;94.20
10344;DHT22;5217;43.960;10.954;2022-11-12T01:36:14;17.90;94.10
10344;DHT22;5217;43.960;10.954;2022-11-12T01:38:44;17.90;93.90
10344;DHT22;5217;43.960;10.954;2022-11-12T01:41:15;17.90;93.90
10344;DHT22;5217;43.960;10.954;2022-11-12T01:43:45;17.90;93.80
10344;DHT22;5217;43.960;10.954;2022-11-12T01:46:17;17.90;93.90
10344;DHT22;5217;43.960;10.954;2022-11-12T01:48:51;17.90;93.80
10344;DHT22;5217;43.960;10.954;2022-11-12T01:51:22;17.90;94.00
10344;DHT22;5217;43.960;10.954;2022-11-12T01:53:53;17.80;94.10
10344;DHT22;5217;43.960;10.954;2022-11-12T01:56:23;17.80;93.90
10344;DHT22;5217;43.960;10.954;2022-11-12T01:58:58;17.80;94.00
10344;DHT22;5217;43.960;10.954;2022-11-12T02:01:28;17.90;94.10
10344;DHT22;5217;43.960;10.954;2022-11-12T02:03:57;17.80;93.70
10344;DHT22;5217;43.960;10.954;2022-11-12T02:06:26;17.80;93.60
10344;DHT22;5217;43.960;10.954;2022-11-12T02:08:54;17.80;93.70
10344;DHT22;5217;43.960;10.954;2022-11-12T02:11:23;17.80;93.70
10344;DHT22;5217;43.960;10.954;2022-11-12T02:13:52;17.80;93.90
10344;DHT22;5217;43.960;10.954;2022-11-12T02:16:32;17.80;94.10
10344;DHT22;5217;43.960;10.954;2022-11-12T02:19:02;17.80;94.10
10344;DHT22;5217;43.960;10.954;2022-11-12T02:21:32;17.80;93.90
10344;DHT22;5217;43.960;10.954;2022-11-12T02:24:02;17.80;93.90
10344;DHT22;5217;43.960;10.954;2022-11-12T02:26:34;17.80;94.00
10344;DHT22;5217;43.960;10.954;2022-11-12T02:29:03;17.80;93.90
10344;DHT22;5217;43.960;10.954;2022-11-12T02:31:32;17.80;94.00
10344;DHT22;5217;43.960;10.954;2022-11-12T02:34:00;17.70;93.90
10344;DHT22;5217;43.960;10.954;2022-11-12T02:36:29;17.70;93.90
10344;DHT22;5217;43.960;10.954;2022-11-12T02:38:59;17.70;93.70
10344;DHT22;5217;43.960;10.954;2022-11-12T02:41:28;17.70;93.80
10344;DHT22;5217;43.960;10.954;2022-11-12T02:43:57;17.70;94.00
10344;DHT22;5217;43.960;10.954;2022-11-12T02:46:25;17.70;93.80
10344;DHT22;5217;43.960;10.954;2022-11-12T02:48:54;17.70;93.70
10344;DHT22;5217;43.960;10.954;2022-11-12T02:51:22;17.60;93.80
10344;DHT22;5217;43.960;10.954;2022-11-12T02:53:51;17.70;93.80
10344;DHT22;5217;43.960;10.954;2022-11-12T02:56:20;17.60;93.70
10344;DHT22;5217;43.960;10.954;2022-11-12T02:58:49;17.60;93.50
10344;DHT22;5217;43.960;10.954;2022-11-12T03:01:17;17.60;93.50
10344;DHT22;5217;43.960;10.954;2022-11-12T03:03:46;17.60;93.50
10344;DHT22;5217;43.960;10.954;2022-11-12T03:06:14;17.50;93.60
10344;DHT22;5217;43.960;10.954;2022-11-12T03:08:42;17.50;93.60
10344;DHT22;5217;43.960;10.954;2022-11-12T03:11:12;17.60;93.40
10344;DHT22;5217;43.960;10.954;2022-11-12T03:13:43;17.60;93.00
10344;DHT22;5217;43.960;10.954;2022-11-12T03:16:11;17.60;93.00
10344;DHT22;5217;43.960;10.954;2022-11-12T03:18:40;17.50;92.90
10344;DHT22;5217;43.960;10.954;2022-11-12T03:21:08;17.60;93.00
10344;DHT22;5217;43.960;10.954;2022-11-12T03:23:37;17.60;93.00
10344;DHT22;5217;43.960;10.954;2022-11-12T03:26:05;17.50;93.10
10344;DHT22;5217;43.960;10.954;2022-11-12T03:28:33;17.60;93.20
10344;DHT22;5217;43.960;10.954;2022-11-12T03:31:03;17.50;93.20
10344;DHT22;5217;43.960;10.954;2022-11-12T03:33:31;17.60;93.20
10344;DHT22;5217;43.960;10.954;2022-11-12T03:36:00;17.50;93.10
10344;DHT22;5217;43.960;10.954;2022-11-12T03:38:28;17.50;93.20
10344;DHT22;5217;43.960;10.954;2022-11-12T03:40:56;17.50;93.20
10344;DHT22;5217;43.960;10.954;2022-11-12T03:43:25;17.50;93.00
10344;DHT22;5217;43.960;10.954;2022-11-12T03:45:53;17.50;92.90
10344;DHT22;5217;43.960;10.954;2022-11-12T03:48:23;17.50;93.00
10344;DHT22;5217;43.960;10.954;2022-11-12T03:50:52;17.50;92.70
10344;DHT22;5217;43.960;10.954;2022-11-12T03:53:24;17.50;93.00
10344;DHT22;5217;43.960;10.954;2022-11-12T03:55:52;17.50;92.50
10344;DHT22;5217;43.960;10.954;2022-11-12T03:58:21;17.50;92.50
10344;DHT22;5217;43.960;10.954;2022-11-12T04:00:50;17.50;92.60
10344;DHT22;5217;43.960;10.954;2022-11-12T04:03:18;17.50;92.80
10344;DHT22;5217;43.960;10.954;2022-11-12T04:05:48;17.50;92.90
10344;DHT22;5217;43.960;10.954;2022-11-12T04:08:34;17.50;93.30
10344;DHT22;5217;43.960;10.954;2022-11-12T04:11:07;17.40;93.50
10344;DHT22;5217;43.960;10.954;2022-11-12T04:13:36;17.40;93.60
10344;DHT22;5217;43.960;10.954;2022-11-12T04:16:07;17.40;93.70
10344;DHT22;5217;43.960;10.954;2022-11-12T04:18:55;17.40;93.60
10344;DHT22;5217;43.960;10.954;2022-11-12T04:21:43;17.30;93.60
10344;DHT22;5217;43.960;10.954;2022-11-12T04:24:19;17.30;93.60
10344;DHT22;5217;43.960;10.954;2022-11-12T04:27:05;17.30;93.70
10344;DHT22;5217;43.960;10.954;2022-11-12T04:29:34;17.30;93.80
10344;DHT22;5217;43.960;10.954;2022-11-12T04:32:20;17.30;93.90
10344;DHT22;5217;43.960;10.954;2022-11-12T04:34:48;17.30;93.80
10344;DHT22;5217;43.960;10.954;2022-11-12T04:37:18;17.20;93.80
10344;DHT22;5217;43.960;10.954;2022-11-12T04:39:49;17.30;93.80
10344;DHT22;5217;43.960;10.954;2022-11-12T04:42:18;17.30;93.70
10344;DHT22;5217;43.960;10.954;2022-11-12T04:45:06;17.30;93.70
10344;DHT22;5217;43.960;10.954;2022-11-12T04:47:37;17.30;93.60
10344;DHT22;5217;43.960;10.954;2022-11-12T04:50:11;17.20;93.50
10344;DHT22;5217;43.960;10.954;2022-11-12T04:52:42;17.30;93.70
10344;DHT22;5217;43.960;10.954;2022-11-12T04:55:11;17.30;93.80
10344;DHT22;5217;43.960;10.954;2022-11-12T04:57:40;17.30;93.90
10344;DHT22;5217;43.960;10.954;2022-11-12T05:00:11;17.20;93.90
10344;DHT22;5217;43.960;10.954;2022-11-12T05:02:40;17.20;94.00
10344;DHT22;5217;43.960;10.954;2022-11-12T05:05:09;17.20;93.90
10344;DHT22;5217;43.960;10.954;2022-11-12T05:07:37;17.20;94.00
10344;DHT22;5217;43.960;10.954;2022-11-12T05:10:09;17.20;94.20
10344;DHT22;5217;43.960;10.954;2022-11-12T05:12:38;17.20;94.10
10344;DHT22;5217;43.960;10.954;2022-11-12T05:15:08;17.20;94.10
10344;DHT22;5217;43.960;10.954;2022-11-12T05:17:41;17.20;94.10
10344;DHT22;5217;43.960;10.954;2022-11-12T05:20:10;17.10;94.10
10344;DHT22;5217;43.960;10.954;2022-11-12T05:22:39;17.20;94.10
10344;DHT22;5217;43.960;10.954;2022-11-12T05:25:17;17.10;93.90
10344;DHT22;5217;43.960;10.954;2022-11-12T05:27:46;17.20;93.60
10344;DHT22;5217;43.960;10.954;2022-11-12T05:30:14;17.20;93.50
10344;DHT22;5217;43.960;10.954;2022-11-12T05:32:43;17.20;93.40
10344;DHT22;5217;43.960;10.954;2022-11-12T05:35:11;17.20;93.50
10344;DHT22;5217;43.960;10.954;2022-11-12T05:37:40;17.20;93.70
10344;DHT22;5217;43.960;10.954;2022-11-12T05:40:09;17.20;93.80
10344;DHT22;5217;43.960;10.954;2022-11-12T05:42:39;17.20;93.80
10344;DHT22;5217;43.960;10.954;2022-11-12T05:45:08;17.20;93.80
10344;DHT22;5217;43.960;10.954;2022-11-12T05:47:37;17.20;93.80
10344;DHT22;5217;43.960;10.954;2022-11-12T05:50:06;17.20;93.80
10344;DHT22;5217;43.960;10.954;2022-11-12T05:52:35;17.10;93.90
10344;DHT22;5217;43.960;10.954;2022-11-12T05:55:04;17.10;94.00
10344;DHT22;5217;43.960;10.954;2022-11-12T05:57:33;17.20;93.90
10344;DHT22;5217;43.960;10.954;2022-11-12T06:00:03;17.10;93.80
10344;DHT22;5217;43.960;10.954;2022-11-12T06:02:32;17.20;93.90
10344;DHT22;5217;43.960;10.954;2022-11-12T06:05:00;17.10;93.90
10344;DHT22;5217;43.960;10.954;2022-11-12T06:07:29;17.10;93.90
10344;DHT22;5217;43.960;10.954;2022-11-12T06:09:57;17.10;94.00
10344;DHT22;5217;43.960;10.954;2022-11-12T06:12:25;17.10;93.90
10344;DHT22;5217;43.960;10.954;2022-11-12T06:14:54;17.10;93.90
10344;DHT22;5217;43.960;10.954;2022-11-12T06:17:23;17.10;93.90
10344;DHT22;5217;43.960;10.954;2022-11-12T06:19:52;17.10;94.10
10344;DHT22;5217;43.960;10.954;2022-11-12T06:22:20;17.00;94.20
10344;DHT22;5217;43.960;10.954;2022-11-12T06:24:49;17.00;94.20
10344;DHT22;5217;43.960;10.954;2022-11-12T06:27:17;17.00;93.80
10344;DHT22;5217;43.960;10.954;2022-11-12T06:29:45;17.00;93.80
10344;DHT22;5217;43.960;10.954;2022-11-12T06:32:14;17.10;93.90
10344;DHT22;5217;43.960;10.954;2022-11-12T06:34:43;17.10;93.90
10344;DHT22;5217;43.960;10.954;2022-11-12T06:37:12;17.00;93.90
10344;DHT22;5217;43.960;10.954;2022-11-12T06:39:40;17.10;94.00
10344;DHT22;5217;43.960;10.954;2022-11-12T06:42:08;17.10;94.00
10344;DHT22;5217;43.960;10.954;2022-11-12T06:44:37;17.10;94.30
10344;DHT22;5217;43.960;10.954;2022-11-12T06:47:05;17.00;94.40
10344;DHT22;5217;43.960;10.954;2022-11-12T06:49:33;17.10;94.50
10344;DHT22;5217;43.960;10.954;2022-11-12T06:52:03;17.10;94.50
10344;DHT22;5217;43.960;10.954;2022-11-12T06:54:32;17.10;94.80
10344;DHT22;5217;43.960;10.954;2022-11-12T06:57:00;17.10;95.00
10344;DHT22;5217;43.960;10.954;2022-11-12T06:59:29;17.10;94.80
10344;DHT22;5217;43.960;10.954;2022-11-12T07:01:57;17.10;94.50
10344;DHT22;5217;43.960;10.954;2022-11-12T07:04:25;17.10;94.60
10344;DHT22;5217;43.960;10.954;2022-11-12T07:06:54;17.10;95.10
10344;DHT22;5217;43.960;10.954;2022-11-12T07:09:23;17.10;95.30
10344;DHT22;5217;43.960;10.954;2022-11-12T07:11:52;17.10;95.70
10344;DHT22;5217;43.960;10.954;2022-11-12T07:14:20;17.10;95.70
10344;DHT22;5217;43.960;10.954;2022-11-12T07:16:48;17.10;95.70
10344;DHT22;5217;43.960;10.954;2022-11-12T07:19:16;17.10;95.70
10344;DHT22;5217;43.960;10.954;2022-11-12T07:21:45;17.10;95.60
10344;DHT22;5217;43.960;10.954;2022-11-12T07:24:13;17.20;95.90
10344;DHT22;5217;43.960;10.954;2022-11-12T07:26:43;17.10;96.00
10344;DHT22;5217;43.960;10.954;2022-11-12T07:29:13;17.20;96.00
10344;DHT22;5217;43.960;10.954;2022-11-12T07:32:01;17.10;95.80
10344;DHT22;5217;43.960;10.954;2022-11-12T07:34:29;17.20;96.20
10344;DHT22;5217;43.960;10.954;2022-11-12T07:36:58;17.20;96.40
10344;DHT22;5217;43.960;10.954;2022-11-12T07:39:26;17.20;96.60
10344;DHT22;5217;43.960;10.954;2022-11-12T07:41:56;17.20;96.70
10344;DHT22;5217;43.960;10.954;2022-11-12T07:44:25;17.30;96.70
10344;DHT22;5217;43.960;10.954;2022-11-12T07:46:53;17.20;96.80
10344;DHT22;5217;43.960;10.954;2022-11-12T07:49:22;17.30;96.90
10344;DHT22;5217;43.960;10.954;2022-11-12T07:51:50;17.30;97.10
10344;DHT22;5217;43.960;10.954;2022-11-12T07:54:18;17.30;97.20
10344;DHT22;5217;43.960;10.954;2022-11-12T07:56:47;17.30;97.30
10344;DHT22;5217;43.960;10.954;2022-11-12T07:59:17;17.30;97.30
10344;DHT22;5217;43.960;10.954;2022-11-12T08:01:45;17.30;97.80
10344;DHT22;5217;43.960;10.954;2022-11-12T08:04:13;17.30;97.80
10344;DHT22;5217;43.960;10.954;2022-11-12T08:06:42;17.30;97.90
10344;DHT22;5217;43.960;10.954;2022-11-12T08:09:11;17.30;98.10
10344;DHT22;5217;43.960;10.954;2022-11-12T08:11:39;17.30;98.00
10344;DHT22;5217;43.960;10.954;2022-11-12T08:14:08;17.30;98.10
10344;DHT22;5217;43.960;10.954;2022-11-12T08:16:38;17.30;98.20
10344;DHT22;5217;43.960;10.954;2022-11-12T08:19:06;17.30;98.30
10344;DHT22;5217;43.960;10.954;2022-11-12T08:21:35;17.30;98.40
10344;DHT22;5217;43.960;10.954;2022-11-12T08:24:04;17.40;98.60
10344;DHT22;5217;43.960;10.954;2022-11-12T08:26:33;17.40;98.60
10344;DHT22;5217;43.960;10.954;2022-11-12T08:29:02;17.40;98.70
10344;DHT22;5217;43.960;10.954;2022-11-12T08:31:35;17.40;98.40
10344;DHT22;5217;43.960;10.954;2022-11-12T08:34:05;17.40;98.30
10344;DHT22;5217;43.960;10.954;2022-11-12T08:36:46;17.40;98.80
10344;DHT22;5217;43.960;10.954;2022-11-12T08:39:14;17.50;97.60
10344;DHT22;5217;43.960;10.954;2022-11-12T08:41:43;17.50;97.20
10344;DHT22;5217;43.960;10.954;2022-11-12T08:44:11;17.50;97.30
10344;DHT22;5217;43.960;10.954;2022-11-12T08:46:40;17.60;97.50
10344;DHT22;5217;43.960;10.954;2022-11-12T08:49:10;17.60;97.80
10344;DHT22;5217;43.960;10.954;2022-11-12T08:51:38;17.60;98.10
10344;DHT22;5217;43.960;10.954;2022-11-12T08:54:06;17.60;98.10
10344;DHT22;5217;43.960;10.954;2022-11-12T08:56:35;17.70;97.90
10344;DHT22;5217;43.960;10.954;2022-11-12T08:59:03;17.70;97.80
10344;DHT22;5217;43.960;10.954;2022-11-12T09:01:33;17.70;97.80
10344;DHT22;5217;43.960;10.954;2022-11-12T09:04:02;17.70;97.60
10344;DHT22;5217;43.960;10.954;2022-11-12T09:06:32;17.70;97.60
10344;DHT22;5217;43.960;10.954;2022-11-12T09:09:00;17.80;97.70
10344;DHT22;5217;43.960;10.954;2022-11-12T09:11:29;17.80;97.70
10344;DHT22;5217;43.960;10.954;2022-11-12T09:13:57;17.80;98.00
10344;DHT22;5217;43.960;10.954;2022-11-12T09:16:26;17.90;98.70
10344;DHT22;5217;43.960;10.954;2022-11-12T09:18:54;17.90;99.10
10344;DHT22;5217;43.960;10.954;2022-11-12T09:21:23;17.90;98.40
10344;DHT22;5217;43.960;10.954;2022-11-12T09:23:52;17.90;97.30
10344;DHT22;5217;43.960;10.954;2022-11-12T09:26:21;18.00;96.80
10344;DHT22;5217;43.960;10.954;2022-11-12T09:28:49;18.00;96.20
10344;DHT22;5217;43.960;10.954;2022-11-12T09:31:20;18.00;96.60
10344;DHT22;5217;43.960;10.954;2022-11-12T09:33:51;18.00;97.00
10344;DHT22;5217;43.960;10.954;2022-11-12T09:36:19;18.10;96.60
10344;DHT22;5217;43.960;10.954;2022-11-12T09:38:48;18.10;96.10
10344;DHT22;5217;43.960;10.954;2022-11-12T09:41:24;18.10;95.90
10344;DHT22;5217;43.960;10.954;2022-11-12T09:43:57;18.10;95.90
10344;DHT22;5217;43.960;10.954;2022-11-12T09:46:33;18.10;95.50
10344;DHT22;5217;43.960;10.954;2022-11-12T09:49:07;18.10;95.30
10344;DHT22;5217;43.960;10.954;2022-11-12T09:51:41;18.20;95.40
10344;DHT22;5217;43.960;10.954;2022-11-12T09:54:19;18.20;95.10
10344;DHT22;5217;43.960;10.954;2022-11-12T09:56:50;18.20;95.10
10344;DHT22;5217;43.960;10.954;2022-11-12T09:59:20;18.20;95.70
10344;DHT22;5217;43.960;10.954;2022-11-12T10:01:56;18.20;95.70
10344;DHT22;5217;43.960;10.954;2022-11-12T10:04:39;18.30;96.00
10344;DHT22;5217;43.960;10.954;2022-11-12T10:07:18;18.30;96.40
10344;DHT22;5217;43.960;10.954;2022-11-12T10:10:02;18.30;96.40
10344;DHT22;5217;43.960;10.954;2022-11-12T10:12:44;18.30;96.90
10344;DHT22;5217;43.960;10.954;2022-11-12T10:15:32;18.30;97.40
10344;DHT22;5217;43.960;10.954;2022-11-12T10:18:29;18.30;97.80
10344;DHT22;5217;43.960;10.954;2022-11-12T10:21:11;18.30;98.00
10344;DHT22;5217;43.960;10.954;2022-11-12T10:23:44;18.40;98.30
10344;DHT22;5217;43.960;10.954;2022-11-12T10:26:14;18.40;98.60
10344;DHT22;5217;43.960;10.954;2022-11-12T10:28:47;18.40;98.70
10344;DHT22;5217;43.960;10.954;2022-11-12T10:31:21;18.40;98.40
10344;DHT22;5217;43.960;10.954;2022-11-12T10:34:14;18.50;98.70
10344;DHT22;5217;43.960;10.954;2022-11-12T10:36:49;18.50;98.80
10344;DHT22;5217;43.960;10.954;2022-11-12T10:39:33;18.50;98.30
10344;DHT22;5217;43.960;10.954;2022-11-12T10:42:09;18.50;97.90
10344;DHT22;5217;43.960;10.954;2022-11-12T10:44:42;18.60;97.90
10344;DHT22;5217;43.960;10.954;2022-11-12T10:47:26;18.60;97.70
10344;DHT22;5217;43.960;10.954;2022-11-12T10:50:17;18.60;97.00
10344;DHT22;5217;43.960;10.954;2022-11-12T10:52:58;18.60;96.40
10344;DHT22;5217;43.960;10.954;2022-11-12T10:55:28;18.60;96.30
10344;DHT22;5217;43.960;10.954;2022-11-12T10:58:14;18.60;96.60
10344;DHT22;5217;43.960;10.954;2022-11-12T11:01:01;18.70;97.30
10344;DHT22;5217;43.960;10.954;2022-11-12T11:03:33;18.70;97.70
10344;DHT22;5217;43.960;10.954;2022-11-12T11:06:04;18.60;97.70
10344;DHT22;5217;43.960;10.954;2022-11-12T11:08:36;18.70;98.00
10344;DHT22;5217;43.960;10.954;2022-11-12T11:11:23;18.70;98.10
10344;DHT22;5217;43.960;10.954;2022-11-12T11:13:54;18.70;98.00
10344;DHT22;5217;43.960;10.954;2022-11-12T11:16:26;18.60;97.60
10344;DHT22;5217;43.960;10.954;2022-11-12T11:18:57;18.60;97.60
10344;DHT22;5217;43.960;10.954;2022-11-12T11:24:50;18.60;98.80
10344;DHT22;5217;43.960;10.954;2022-11-12T11:27:28;18.60;99.50
10344;DHT22;5217;43.960;10.954;2022-11-12T11:30:04;18.60;99.90
10344;DHT22;5217;43.960;10.954;2022-11-12T11:33:08;18.60;99.90
10344;DHT22;5217;43.960;10.954;2022-11-12T11:35:54;18.60;99.90
10344;DHT22;5217;43.960;10.954;2022-11-12T11:38:32;18.60;99.90
10344;DHT22;5217;43.960;10.954;2022-11-12T11:41:20;18.60;99.90
10344;DHT22;5217;43.960;10.954;2022-11-12T11:43:58;18.60;99.90
10344;DHT22;5217;43.960;10.954;2022-11-12T11:46:53;18.60;99.20
10344;DHT22;5217;43.960;10.954;2022-11-12T11:52:48;18.60;94.70
10344;DHT22;5217;43.960;10.954;2022-11-12T11:55:40;18.60;94.90
10344;DHT22;5217;43.960;10.954;2022-11-12T11:59:09;18.60;95.30
10344;DHT22;5217;43.960;10.954;2022-11-12T12:02:27;18.60;95.10
10344;DHT22;5217;43.960;10.954;2022-11-12T12:05:16;18.60;95.30
10344;DHT22;5217;43.960;10.954;2022-11-12T12:07:54;18.60;95.30
10344;DHT22;5217;43.960;10.954;2022-11-12T12:10:34;18.60;95.70
10344;DHT22;5217;43.960;10.954;2022-11-12T12:13:32;18.60;96.30
10344;DHT22;5217;43.960;10.954;2022-11-12T12:16:20;18.70;96.20
10344;DHT22;5217;43.960;10.954;2022-11-12T12:18:54;18.60;96.20
10344;DHT22;5217;43.960;10.954;2022-11-12T12:21:25;18.60;96.30
10344;DHT22;5217;43.960;10.954;2022-11-12T12:24:01;18.60;96.70
10344;DHT22;5217;43.960;10.954;2022-11-12T12:26:34;18.70;97.20
10344;DHT22;5217;43.960;10.954;2022-11-12T12:29:09;18.70;97.30
10344;DHT22;5217;43.960;10.954;2022-11-12T12:31:42;18.70;97.10
10344;DHT22;5217;43.960;10.954;2022-11-12T12:34:18;18.70;96.70
10344;DHT22;5217;43.960;10.954;2022-11-12T12:36:51;18.70;96.70
10344;DHT22;5217;43.960;10.954;2022-11-12T12:39:36;18.70;96.80
10344;DHT22;5217;43.960;10.954;2022-11-12T12:42:16;18.80;97.10
10344;DHT22;5217;43.960;10.954;2022-11-12T12:44:53;18.80;97.70
10344;DHT22;5217;43.960;10.954;2022-11-12T12:47:29;18.80;98.20
10344;DHT22;5217;43.960;10.954;2022-11-12T12:49:59;18.70;98.60
10344;DHT22;5217;43.960;10.954;2022-11-12T12:53:03;18.80;99.10
10344;DHT22;5217;43.960;10.954;2022-11-12T12:55:37;18.80;99.50
10344;DHT22;5217;43.960;10.954;2022-11-12T12:58:16;18.80;99.90
10344;DHT22;5217;43.960;10.954;2022-11-12T13:00:49;18.80;99.90
10344;DHT22;5217;43.960;10.954;2022-11-12T13:03:51;18.80;99.90
10344;DHT22;5217;43.960;10.954;2022-11-12T13:06:25;18.80;99.90
10344;DHT22;5217;43.960;10.954;2022-11-12T13:08:58;18.80;99.90
10344;DHT22;5217;43.960;10.954;2022-11-12T13:11:52;18.80;99.90
10344;DHT22;5217;43.960;10.954;2022-11-12T13:17:46;18.80;99.90
10344;DHT22;5217;43.960;10.954;2022-11-12T13:20:36;18.80;99.90
10344;DHT22;5217;43.960;10.954;2022-11-12T13:26:42;18.80;99.90
10344;DHT22;5217;43.960;10.954;2022-11-12T13:29:41;18.80;99.90
10344;DHT22;5217;43.960;10.954;2022-11-12T13:32:33;18.80;99.90
10344;DHT22;5217;43.960;10.954;2022-11-12T13:35:28;18.80;99.90
10344;DHT22;5217;43.960;10.954;2022-11-12T13:38:01;18.80;99.90
10344;DHT22;5217;43.960;10.954;2022-11-12T13:40:39;18.80;99.90
10344;DHT22;5217;43.960;10.954;2022-11-12T13:43:31;18.70;99.90
10344;DHT22;5217;43.960;10.954;2022-11-12T13:49:18;18.70;99.90
10344;DHT22;5217;43.960;10.954;2022-11-12T13:51:48;18.80;99.90
10344;DHT22;5217;43.960;10.954;2022-11-12T13:54:39;18.80;99.90
10344;DHT22;5217;43.960;10.954;2022-11-12T13:57:28;18.70;99.90
10344;DHT22;5217;43.960;10.954;2022-11-12T14:00:20;18.70;99.90
10344;DHT22;5217;43.960;10.954;2022-11-12T14:02:57;18.80;99.90
10344;DHT22;5217;43.960;10.954;2022-11-12T14:05:31;18.80;99.90
10344;DHT22;5217;43.960;10.954;2022-11-12T14:14:15;18.80;99.90
10344;DHT22;5217;43.960;10.954;2022-11-12T14:16:55;18.70;99.90
10344;DHT22;5217;43.960;10.954;2022-11-12T14:19:52;18.70;99.90
10344;DHT22;5217;43.960;10.954;2022-11-12T14:22:24;18.70;99.90
10344;DHT22;5217;43.960;10.954;2022-11-12T14:24:58;18.70;99.90
10344;DHT22;5217;43.960;10.954;2022-11-12T14:27:34;18.70;99.90
10344;DHT22;5217;43.960;10.954;2022-11-12T14:30:18;18.70;99.90
10344;DHT22;5217;43.960;10.954;2022-11-12T14:32:49;18.70;99.90
10344;DHT22;5217;43.960;10.954;2022-11-12T14:35:33;18.60;99.90
10344;DHT22;5217;43.960;10.954;2022-11-12T14:38:09;18.70;99.90
10344;DHT22;5217;43.960;10.954;2022-11-12T14:40:43;18.70;99.90
10344;DHT22;5217;43.960;10.954;2022-11-12T14:43:33;18.70;99.90
10344;DHT22;5217;43.960;10.954;2022-11-12T14:46:04;18.60;99.90
10344;DHT22;5217;43.960;10.954;2022-11-12T14:48:43;18.60;99.90
10344;DHT22;5217;43.960;10.954;2022-11-12T14:51:13;18.60;99.90
10344;DHT22;5217;43.960;10.954;2022-11-12T14:53:47;18.60;99.90
10344;DHT22;5217;43.960;10.954;2022-11-12T14:56:24;18.60;99.60
10344;DHT22;5217;43.960;10.954;2022-11-12T14:59:01;18.60;98.80
10344;DHT22;5217;43.960;10.954;2022-11-12T15:01:33;18.60;98.40
10344;DHT22;5217;43.960;10.954;2022-11-12T15:04:22;18.60;97.80
10344;DHT22;5217;43.960;10.954;2022-11-12T15:06:53;18.60;96.80
10344;DHT22;5217;43.960;10.954;2022-11-12T15:09:34;18.60;96.00
10344;DHT22;5217;43.960;10.954;2022-11-12T15:12:04;18.60;94.70
10344;DHT22;5217;43.960;10.954;2022-11-12T15:14:34;18.60;94.00
10344;DHT22;5217;43.960;10.954;2022-11-12T15:17:03;18.60;93.60
10344;DHT22;5217;43.960;10.954;2022-11-12T15:19:32;18.60;92.80
10344;DHT22;5217;43.960;10.954;2022-11-12T15:22:03;18.60;87.30
10344;DHT22;5217;43.960;10.954;2022-11-12T15:24:34;18.60;83.50
10344;DHT22;5217;43.960;10.954;2022-11-12T15:27:32;18.60;82.90
10344;DHT22;5217;43.960;10.954;2022-11-12T15:30:14;18.70;84.60
10344;DHT22;5217;43.960;10.954;2022-11-12T15:32:44;18.70;85.70
10344;DHT22;5217;43.960;10.954;2022-11-12T15:35:33;18.70;86.10
10344;DHT22;5217;43.960;10.954;2022-11-12T15:38:05;18.70;85.80
10344;DHT22;5217;43.960;10.954;2022-11-12T15:40:42;18.70;85.10
10344;DHT22;5217;43.960;10.954;2022-11-12T15:43:14;18.70;85.50
10344;DHT22;5217;43.960;10.954;2022-11-12T15:45:47;18.70;86.50
10344;DHT22;5217;43.960;10.954;2022-11-12T15:48:16;18.70;87.30
10344;DHT22;5217;43.960;10.954;2022-11-12T15:50:45;18.70;89.00
10344;DHT22;5217;43.960;10.954;2022-11-12T15:53:14;18.70;89.80
10344;DHT22;5217;43.960;10.954;2022-11-12T15:55:45;18.60;90.60
10344;DHT22;5217;43.960;10.954;2022-11-12T15:58:17;18.70;91.30
10344;DHT22;5217;43.960;10.954;2022-11-12T16:00:47;18.70;92.00
10344;DHT22;5217;43.960;10.954;2022-11-12T16:03:17;18.60;92.60
10344;DHT22;5217;43.960;10.954;2022-11-12T16:05:47;18.60;92.30
10344;DHT22;5217;43.960;10.954;2022-11-12T16:08:16;18.60;92.20
10344;DHT22;5217;43.960;10.954;2022-11-12T16:10:46;18.60;92.20
10344;DHT22;5217;43.960;10.954;2022-11-12T16:13:27;18.60;92.40
10344;DHT22;5217;43.960;10.954;2022-11-12T16:15:57;18.60;92.60
10344;DHT22;5217;43.960;10.954;2022-11-12T16:18:26;18.60;92.90
10344;DHT22;5217;43.960;10.954;2022-11-12T16:20:54;18.50;92.70
10344;DHT22;5217;43.960;10.954;2022-11-12T16:23:23;18.50;92.50
10344;DHT22;5217;43.960;10.954;2022-11-12T16:25:53;18.50;92.60
10344;DHT22;5217;43.960;10.954;2022-11-12T16:28:22;18.50;92.40
10344;DHT22;5217;43.960;10.954;2022-11-12T16:30:50;18.50;92.20